Time;durP1;ratioP1;P1;durP2;ratioP2;P2;SDS_P1;SDS_P2;PMS_P1;PMS_P2;Temp;Humidity;BMP_temperature;BMP_pressure;BME280_temperature;BME280_humidity;BME280_pressure;Samples;Min_cycle;Max_cycle;Signal;HPM_P1;HPM_P2
2022/11/22 00:01:01;;;;;;;11.70;7.22;;;3.10;99.90;;;;;;5053468;28;20124;-69
2022/11/22 00:03:27;;;;;;;12.07;7.03;;;4.10;99.90;;;;;;5053393;28;20044;-69
2022/11/22 00:05:52;;;;;;;11.02;6.53;;;3.10;99.90;;;;;;5053909;28;20040;-69
2022/11/22 00:08:18;;;;;;;10.65;6.35;;;4.00;99.90;;;;;;5053367;28;20076;-69
2022/11/22 00:10:44;;;;;;;12.35;6.65;;;3.10;99.90;;;;;;5035670;28;20045;-69
2022/11/22 00:13:10;;;;;;;12.13;7.22;;;3.50;99.90;;;;;;5053287;28;20049;-69
2022/11/22 00:15:35;;;;;;;12.23;7.30;;;3.10;99.90;;;;;;5034723;28;20037;-69
2022/11/22 00:18:01;;;;;;;10.75;6.57;;;3.10;99.90;;;;;;5052820;28;20128;-69
2022/11/22 00:20:27;;;;;;;11.07;6.63;;;4.10;99.90;;;;;;5053064;28;20048;-69
2022/11/22 00:22:52;;;;;;;10.98;6.88;;;3.40;99.90;;;;;;5053139;28;20052;-69
2022/11/22 00:25:18;;;;;;;13.15;7.47;;;3.10;99.90;;;;;;5052914;28;20048;-69
2022/11/22 00:27:44;;;;;;;12.45;6.95;;;3.50;99.90;;;;;;5053126;28;20469;-69
2022/11/22 00:30:10;;;;;;;9.88;6.38;;;3.10;99.90;;;;;;5053104;28;20095;-69
2022/11/22 00:32:35;;;;;;;11.63;6.55;;;3.10;99.90;;;;;;5053105;28;20464;-69
2022/11/22 00:35:01;;;;;;;12.00;7.40;;;3.10;99.90;;;;;;5053710;28;20041;-69
2022/11/22 00:37:27;;;;;;;12.93;7.68;;;3.10;99.90;;;;;;5035683;28;20461;-69
2022/11/22 00:39:53;;;;;;;11.82;6.78;;;3.20;99.90;;;;;;5053373;28;20049;-69
2022/11/22 00:42:18;;;;;;;12.18;7.38;;;3.40;99.90;;;;;;5052977;28;20103;-69
2022/11/22 00:44:44;;;;;;;11.05;6.63;;;4.30;99.90;;;;;;5052968;28;20102;-69
2022/11/22 00:47:09;;;;;;;12.20;7.20;;;3.20;99.90;;;;;;5052907;28;20045;-69
2022/11/22 00:49:35;;;;;;;11.93;6.35;;;3.90;99.90;;;;;;5052943;28;20092;-69
2022/11/22 00:52:01;;;;;;;10.50;6.65;;;3.20;99.90;;;;;;5052712;28;20048;-69
2022/11/22 00:54:26;;;;;;;10.77;6.70;;;3.20;99.90;;;;;;5052889;28;20052;-69
2022/11/22 00:56:52;;;;;;;12.35;7.20;;;3.20;99.90;;;;;;5052816;28;20064;-69
2022/11/22 00:59:18;;;;;;;12.73;7.50;;;3.20;99.90;;;;;;5052781;28;20048;-69
2022/11/22 01:01:43;;;;;;;13.55;7.38;;;4.00;99.90;;;;;;5052851;28;20083;-69
2022/11/22 01:04:09;;;;;;;11.73;6.60;;;3.20;99.90;;;;;;5052740;28;20146;-69
2022/11/22 01:06:34;;;;;;;13.25;7.10;;;3.20;99.90;;;;;;5052745;28;20138;-69
2022/11/22 01:09:00;;;;;;;11.02;7.22;;;3.80;99.90;;;;;;5052747;28;20041;-69
2022/11/22 01:11:26;;;;;;;12.10;7.03;;;3.20;99.90;;;;;;5052476;28;20137;-69
2022/11/22 01:13:52;;;;;;;8.85;6.88;;;3.20;99.90;;;;;;5053471;28;20049;-69
2022/11/22 01:16:18;;;;;;;13.35;7.60;;;3.60;99.90;;;;;;5034954;28;20497;-69
2022/11/22 01:18:45;;;;;;;14.10;7.22;;;4.00;99.90;;;;;;5052250;28;20505;-69
2022/11/22 01:21:10;;;;;;;10.73;7.35;;;3.60;99.90;;;;;;5052466;28;20088;-69
2022/11/22 01:23:36;;;;;;;13.43;8.50;;;4.00;99.90;;;;;;5052803;28;20124;-69
2022/11/22 01:26:05;;;;;;;13.98;8.07;;;3.30;99.90;;;;;;5052487;28;20067;-69
2022/11/22 01:28:30;;;;;;;10.60;6.60;;;3.30;99.90;;;;;;5055618;28;20057;-69
2022/11/22 01:30:56;;;;;;;11.27;7.30;;;3.30;99.90;;;;;;5056342;28;20458;-69
2022/11/22 01:33:22;;;;;;;11.65;7.10;;;3.40;99.90;;;;;;5056270;28;20102;-69
2022/11/22 01:35:48;;;;;;;11.73;6.95;;;3.30;99.90;;;;;;5056132;28;20063;-69
2022/11/22 01:38:13;;;;;;;11.70;6.85;;;3.40;99.90;;;;;;5038567;28;20044;-69
2022/11/22 01:40:39;;;;;;;15.20;8.38;;;3.30;99.90;;;;;;5056292;28;20103;-69
2022/11/22 01:43:15;;;;;;;12.65;7.18;;;4.30;99.90;;;;;;5038456;28;20133;-69
2022/11/22 01:45:52;;;;;;;11.52;7.85;;;3.60;99.90;;;;;;5056515;28;20045;-69
2022/11/22 01:48:30;;;;;;;12.45;7.53;;;3.30;99.90;;;;;;5056767;28;20098;-69
2022/11/22 01:51:04;;;;;;;11.77;7.22;;;3.30;99.90;;;;;;5056687;28;20125;-69
2022/11/22 01:53:35;;;;;;;11.70;7.43;;;3.30;99.90;;;;;;5055890;28;20052;-69
2022/11/22 01:56:03;;;;;;;12.38;6.75;;;4.20;99.90;;;;;;5055869;28;20080;-69
2022/11/22 01:58:32;;;;;;;12.82;7.32;;;3.40;99.90;;;;;;5055963;28;20557;-69
2022/11/22 02:00:59;;;;;;;11.32;7.25;;;3.40;99.90;;;;;;5055673;28;20049;-69
2022/11/22 02:03:27;;;;;;;11.93;7.20;;;3.90;99.90;;;;;;5055382;28;20517;-69
2022/11/22 02:05:53;;;;;;;13.55;7.35;;;3.40;99.90;;;;;;5055667;28;20409;-69
2022/11/22 02:08:36;;;;;;;12.23;7.53;;;3.60;99.90;;;;;;5055564;28;20045;-69
2022/11/22 02:11:03;;;;;;;11.82;6.97;;;3.40;99.90;;;;;;5038257;28;20059;-68
2022/11/22 02:13:33;;;;;;;12.25;6.78;;;3.40;99.90;;;;;;5055458;28;20080;-69
2022/11/22 02:15:59;;;;;;;11.30;7.18;;;3.40;99.90;;;;;;5055890;28;20134;-69
2022/11/22 02:18:25;;;;;;;10.80;6.40;;;3.40;99.90;;;;;;5055303;28;20049;-69
2022/11/22 02:20:52;;;;;;;11.13;6.57;;;4.50;99.90;;;;;;5055758;28;20052;-69
2022/11/22 02:24:09;;;;;;;12.15;7.00;;;4.70;99.90;;;;;;5055318;28;20084;-69
2022/11/22 02:26:34;;;;;;;11.38;6.72;;;3.50;99.90;;;;;;5037748;28;20059;-69
2022/11/22 02:29:04;;;;;;;10.65;6.43;;;3.50;99.90;;;;;;5055137;28;20447;-69
2022/11/22 02:31:43;;;;;;;11.68;7.53;;;3.50;99.90;;;;;;5055318;28;20052;-69
2022/11/22 02:34:10;;;;;;;12.88;7.35;;;3.50;99.90;;;;;;5055447;28;20503;-69
2022/11/22 02:36:51;;;;;;;14.05;7.30;;;3.60;99.90;;;;;;5055065;28;20045;-69
2022/11/22 02:39:22;;;;;;;12.10;7.25;;;3.50;99.90;;;;;;5054684;28;20049;-69
2022/11/22 02:41:48;;;;;;;10.80;6.68;;;3.50;99.90;;;;;;5054958;28;20048;-69
2022/11/22 02:44:15;;;;;;;12.32;7.30;;;4.10;99.90;;;;;;5054911;28;20045;-69
2022/11/22 02:46:53;;;;;;;12.18;7.43;;;3.70;99.90;;;;;;5054824;28;20094;-69
2022/11/22 02:49:21;;;;;;;11.98;7.47;;;3.50;99.90;;;;;;5054834;28;20041;-69
2022/11/22 02:51:47;;;;;;;11.05;7.28;;;3.70;99.90;;;;;;5054749;28;20410;-69
2022/11/22 02:54:13;;;;;;;10.32;6.68;;;3.50;99.90;;;;;;5054683;28;20080;-69
2022/11/22 02:56:39;;;;;;;11.35;6.90;;;3.90;99.90;;;;;;5054771;28;20049;-69
2022/11/22 02:59:04;;;;;;;10.70;6.38;;;4.00;99.90;;;;;;5054517;28;20052;-69
2022/11/22 03:01:30;;;;;;;12.38;6.60;;;3.80;99.90;;;;;;5054830;28;20095;-69
2022/11/22 03:03:56;;;;;;;10.40;6.10;;;3.50;99.90;;;;;;5037298;28;20452;-69
2022/11/22 03:06:21;;;;;;;11.23;7.15;;;3.60;99.90;;;;;;5054536;28;20102;-69
2022/11/22 03:08:50;;;;;;;11.60;6.43;;;3.80;99.90;;;;;;5054420;28;20045;-69
2022/11/22 03:11:15;;;;;;;9.57;6.43;;;3.60;99.90;;;;;;5054636;28;20048;-69
2022/11/22 03:13:41;;;;;;;11.52;6.70;;;3.60;99.90;;;;;;5054597;28;20052;-68
2022/11/22 03:16:07;;;;;;;11.73;6.75;;;4.20;99.90;;;;;;5054308;28;20094;-68
2022/11/22 03:18:34;;;;;;;11.00;6.72;;;4.50;99.90;;;;;;5054139;28;20060;-68
2022/11/22 03:21:04;;;;;;;12.43;6.85;;;3.60;99.90;;;;;;5054314;28;20470;-69
2022/11/22 03:23:30;;;;;;;10.48;7.22;;;3.70;99.90;;;;;;5054079;28;20076;-69
2022/11/22 03:25:56;;;;;;;11.35;6.55;;;3.70;99.90;;;;;;5054443;28;20135;-68
2022/11/22 03:28:21;;;;;;;11.52;6.90;;;3.80;99.90;;;;;;5054068;28;20144;-69
2022/11/22 03:30:47;;;;;;;10.30;6.85;;;3.70;99.90;;;;;;5055066;28;20084;-69
2022/11/22 03:33:13;;;;;;;11.30;6.43;;;4.30;99.90;;;;;;5053928;28;20037;-69
2022/11/22 03:35:38;;;;;;;9.30;5.93;;;3.70;99.90;;;;;;5053926;28;20484;-69
2022/11/22 03:38:05;;;;;;;12.00;6.70;;;5.30;99.90;;;;;;5054453;28;20517;-68
2022/11/22 03:40:32;;;;;;;10.32;5.95;;;4.70;99.90;;;;;;5053847;28;20041;-69
2022/11/22 03:43:01;;;;;;;13.15;7.07;;;4.00;99.90;;;;;;5053705;28;20058;-68
2022/11/22 03:45:27;;;;;;;11.95;6.72;;;3.80;99.90;;;;;;5053799;28;20049;-69
2022/11/22 03:47:55;;;;;;;12.20;7.07;;;3.80;99.90;;;;;;5035889;28;20099;-69
2022/11/22 03:50:21;;;;;;;10.13;5.72;;;4.50;99.90;;;;;;5053893;28;20060;-69
2022/11/22 03:52:47;;;;;;;12.20;6.75;;;3.80;99.90;;;;;;5053433;28;20131;-69
2022/11/22 03:55:14;;;;;;;10.57;6.45;;;3.80;99.90;;;;;;5036536;28;20129;-69
2022/11/22 03:57:39;;;;;;;9.43;5.85;;;3.80;99.90;;;;;;5053623;28;20048;-69
2022/11/22 04:00:06;;;;;;;10.02;6.93;;;3.80;99.90;;;;;;5053882;28;20045;-69
2022/11/22 04:02:32;;;;;;;10.73;7.28;;;3.80;99.90;;;;;;5053345;28;20044;-69
2022/11/22 04:04:57;;;;;;;11.27;6.90;;;3.80;99.90;;;;;;5053673;28;20055;-68
2022/11/22 04:07:23;;;;;;;11.98;7.50;;;3.80;99.90;;;;;;5053402;28;20044;-68
2022/11/22 04:09:48;;;;;;;12.68;6.57;;;3.80;99.90;;;;;;5053370;28;20041;-68
2022/11/22 04:12:14;;;;;;;12.63;6.85;;;3.80;99.90;;;;;;5053798;28;20474;-69
2022/11/22 04:17:39;;;;;;;9.73;6.22;;;4.20;99.90;;;;;;5039041;28;20428;-69
2022/11/22 04:23:01;;;;;;;11.07;7.30;;;3.90;99.90;;;;;;5053356;28;20121;-69
2022/11/22 04:25:29;;;;;;;11.18;6.32;;;3.90;99.90;;;;;;5053685;28;20095;-69
2022/11/22 04:27:56;;;;;;;11.63;6.97;;;3.90;99.90;;;;;;5053769;28;20131;-69
2022/11/22 04:32:44;;;;;;;12.20;6.57;;;3.90;99.90;;;;;;5052920;28;20092;-69
2022/11/22 04:33:08;;;;;;;9.97;6.83;;;3.90;99.90;;;;;;5052943;28;20103;-69
2022/11/22 04:35:34;;;;;;;11.02;6.05;;;3.90;99.90;;;;;;5052870;28;20051;-69
2022/11/22 04:38:00;;;;;;;10.18;6.60;;;3.90;99.90;;;;;;5053024;28;20049;-68
2022/11/22 04:40:26;;;;;;;9.80;6.47;;;4.00;99.90;;;;;;5052936;28;20044;-68
2022/11/22 04:45:36;;;;;;;10.52;6.15;;;3.90;99.90;;;;;;5053188;28;20401;-68
2022/11/22 04:48:02;;;;;;;10.73;5.97;;;3.90;99.90;;;;;;5053177;28;20041;-68
2022/11/22 04:53:15;;;;;;;9.70;6.13;;;4.00;99.90;;;;;;5053543;28;20132;-68
2022/11/22 04:55:42;;;;;;;9.88;6.07;;;4.00;99.90;;;;;;5052888;28;20049;-68
2022/11/22 04:58:08;;;;;;;10.68;6.38;;;4.00;99.90;;;;;;5053150;28;20095;-68
2022/11/22 05:00:33;;;;;;;9.75;6.18;;;4.60;99.90;;;;;;5053226;28;20085;-68
2022/11/22 05:02:59;;;;;;;11.02;6.55;;;4.70;99.90;;;;;;5037469;28;20044;-68
2022/11/22 05:05:26;;;;;;;9.82;6.13;;;4.10;99.90;;;;;;5057070;28;20083;-68
2022/11/22 05:07:52;;;;;;;11.60;6.82;;;4.10;99.90;;;;;;5056760;28;20083;-68
2022/11/22 05:10:18;;;;;;;10.25;5.97;;;4.90;99.90;;;;;;5056679;28;20049;-68
2022/11/22 05:12:43;;;;;;;8.60;5.72;;;4.20;99.90;;;;;;5056588;28;20389;-68
2022/11/22 05:15:10;;;;;;;10.40;6.38;;;4.40;99.90;;;;;;5056620;28;20436;-68
2022/11/22 05:17:37;;;;;;;10.05;6.03;;;4.20;99.90;;;;;;5056560;28;20041;-68
2022/11/22 05:20:06;;;;;;;9.70;6.03;;;4.20;99.90;;;;;;5056268;28;20072;-68
2022/11/22 05:25:17;;;;;;;10.40;6.32;;;4.60;99.90;;;;;;5056187;28;20049;-68
2022/11/22 05:27:43;;;;;;;8.73;5.25;;;4.70;99.90;;;;;;5056342;28;20131;-68
2022/11/22 05:30:08;;;;;;;8.90;6.28;;;4.30;99.90;;;;;;5056321;28;20135;-68
2022/11/22 05:32:34;;;;;;;9.82;5.97;;;4.40;99.90;;;;;;5039506;28;20489;-68
2022/11/22 05:35:00;;;;;;;9.38;6.10;;;5.30;99.90;;;;;;5056129;28;20045;-68
2022/11/22 05:37:26;;;;;;;9.85;6.38;;;4.50;99.90;;;;;;5056279;28;20048;-68
2022/11/22 05:39:52;;;;;;;9.73;5.88;;;4.50;99.90;;;;;;5038186;28;20044;-68
2022/11/22 05:42:18;;;;;;;8.88;5.45;;;4.70;99.90;;;;;;5056044;28;20052;-68
2022/11/22 05:44:43;;;;;;;10.23;5.97;;;4.60;99.90;;;;;;5056501;28;20049;-68
2022/11/22 05:47:09;;;;;;;9.95;6.13;;;4.60;99.90;;;;;;5056000;28;20055;-68
2022/11/22 05:49:35;;;;;;;9.40;5.68;;;4.60;99.90;;;;;;5055926;28;20037;-68
2022/11/22 05:52:02;;;;;;;9.02;5.43;;;4.60;99.90;;;;;;5055795;28;20045;-68
2022/11/22 05:54:28;;;;;;;8.40;5.88;;;4.60;99.90;;;;;;5055834;28;20045;-68
2022/11/22 05:56:54;;;;;;;9.05;5.82;;;4.70;99.90;;;;;;5056103;28;20385;-68
2022/11/22 05:59:19;;;;;;;8.77;5.57;;;4.70;99.90;;;;;;5056276;28;20124;-68
2022/11/22 06:01:45;;;;;;;10.50;6.10;;;4.70;99.90;;;;;;5055695;28;20053;-68
2022/11/22 06:04:11;;;;;;;9.45;6.10;;;5.00;99.90;;;;;;5056483;28;20079;-68
2022/11/22 06:06:37;;;;;;;9.30;5.70;;;4.70;99.90;;;;;;5055547;28;20496;-68
2022/11/22 06:09:03;;;;;;;7.25;5.00;;;4.70;99.90;;;;;;5055496;28;20093;-68
2022/11/22 06:11:29;;;;;;;10.93;5.82;;;4.90;99.90;;;;;;5055488;28;20474;-68
2022/11/22 06:13:57;;;;;;;11.80;6.68;;;4.80;99.90;;;;;;5054550;28;20052;-68
2022/11/22 06:16:23;;;;;;;10.63;6.93;;;4.80;99.90;;;;;;5055449;28;20045;-68
2022/11/22 06:18:49;;;;;;;9.07;6.20;;;4.80;99.90;;;;;;5037603;28;20044;-68
2022/11/22 06:21:18;;;;;;;10.27;6.32;;;4.90;99.90;;;;;;5055304;28;20052;-68
2022/11/22 06:23:44;;;;;;;10.27;6.38;;;5.20;99.90;;;;;;5055313;28;20048;-68
2022/11/22 06:26:15;;;;;;;11.52;6.85;;;4.90;99.90;;;;;;5055573;28;20402;-68
2022/11/22 06:28:42;;;;;;;10.15;6.05;;;5.10;99.90;;;;;;5055192;28;20052;-68
2022/11/22 06:31:12;;;;;;;11.43;6.13;;;5.00;99.90;;;;;;5055138;28;20132;-68
2022/11/22 06:33:38;;;;;;;8.70;5.80;;;4.90;99.90;;;;;;5055191;28;20053;-68
2022/11/22 06:36:07;;;;;;;8.80;5.43;;;5.00;99.90;;;;;;5055106;28;20045;-68
2022/11/22 06:38:34;;;;;;;10.55;5.70;;;5.00;99.90;;;;;;5055213;28;20452;-68
2022/11/22 06:41:01;;;;;;;10.15;5.90;;;4.90;99.90;;;;;;5054963;28;20071;-68
2022/11/22 06:43:31;;;;;;;8.45;5.50;;;4.90;99.90;;;;;;5054888;28;20110;-68
2022/11/22 06:45:57;;;;;;;7.63;5.35;;;4.90;99.90;;;;;;5037337;28;20045;-68
2022/11/22 06:48:24;;;;;;;11.55;6.57;;;4.90;99.90;;;;;;5055165;28;20454;-68
2022/11/22 06:50:50;;;;;;;13.30;6.07;;;4.90;99.90;;;;;;5036942;28;20140;-68
2022/11/22 06:53:15;;;;;;;8.48;5.78;;;4.90;99.90;;;;;;5054835;28;20128;-68
2022/11/22 06:55:41;;;;;;;9.50;6.07;;;4.90;99.90;;;;;;5054577;28;20041;-68
2022/11/22 06:58:07;;;;;;;9.70;5.85;;;4.90;99.90;;;;;;5054649;28;20059;-68
2022/11/22 07:00:32;;;;;;;9.38;5.68;;;5.00;99.90;;;;;;5054495;28;20093;-68
2022/11/22 07:02:58;;;;;;;8.57;5.55;;;5.10;99.90;;;;;;5054405;28;20080;-68
2022/11/22 07:05:23;;;;;;;9.48;6.07;;;4.90;99.90;;;;;;5054490;28;20045;-68
2022/11/22 07:07:49;;;;;;;10.35;6.03;;;5.40;99.90;;;;;;5054465;28;20041;-68
2022/11/22 07:10:15;;;;;;;14.48;6.30;;;5.00;99.90;;;;;;5054447;28;20041;-68
2022/11/22 07:12:40;;;;;;;9.85;6.22;;;5.10;99.90;;;;;;5054374;28;20044;-68
2022/11/22 07:15:06;;;;;;;9.93;5.97;;;5.40;99.90;;;;;;5054503;28;20088;-65
2022/11/22 07:17:32;;;;;;;10.82;5.53;;;5.10;99.90;;;;;;5053768;28;20094;-65
2022/11/22 07:19:58;;;;;;;8.80;5.63;;;5.10;99.90;;;;;;5053649;28;20457;-65
2022/11/22 07:22:23;;;;;;;9.43;5.53;;;5.10;99.90;;;;;;5054099;28;20131;-65
2022/11/22 07:24:49;;;;;;;9.77;5.55;;;5.10;99.90;;;;;;5053568;28;20053;-65
2022/11/22 07:27:15;;;;;;;9.50;6.00;;;5.80;99.90;;;;;;5054038;28;20049;-65
2022/11/22 07:29:40;;;;;;;7.80;5.20;;;5.20;99.90;;;;;;5054352;28;20053;-65
2022/11/22 07:32:06;;;;;;;9.75;5.32;;;5.20;99.90;;;;;;5036066;28;20044;-65
2022/11/22 07:34:32;;;;;;;7.35;4.57;;;5.20;99.90;;;;;;5053787;28;20041;-64
2022/11/22 07:36:57;;;;;;;9.32;4.95;;;5.30;99.90;;;;;;5053865;28;20052;-65
2022/11/22 07:39:23;;;;;;;9.77;4.82;;;5.30;99.90;;;;;;5035909;28;20045;-65
2022/11/22 07:41:48;;;;;;;8.50;4.50;;;5.30;99.90;;;;;;5053726;28;20052;-65
2022/11/22 07:44:14;;;;;;;10.75;4.30;;;5.60;99.90;;;;;;5053431;28;20136;-65
2022/11/22 07:46:40;;;;;;;8.30;3.40;;;5.40;99.90;;;;;;5036642;28;20044;-65
2022/11/22 07:49:05;;;;;;;8.00;3.70;;;5.40;99.90;;;;;;5053682;28;20048;-65
2022/11/22 07:51:31;;;;;;;7.15;3.72;;;5.40;99.90;;;;;;5036001;28;20052;-65
2022/11/22 07:53:57;;;;;;;8.48;3.13;;;5.90;99.90;;;;;;5053643;28;20063;-65
2022/11/22 07:56:23;;;;;;;5.78;3.10;;;5.50;99.90;;;;;;5054180;28;20401;-63
2022/11/22 07:58:48;;;;;;;5.47;3.10;;;5.50;99.90;;;;;;5035718;28;20049;-62
2022/11/22 08:01:17;;;;;;;6.28;2.90;;;5.60;99.90;;;;;;5054199;28;20045;-62
2022/11/22 08:03:44;;;;;;;5.88;3.13;;;5.60;99.90;;;;;;5053919;28;20124;-63
2022/11/22 08:06:11;;;;;;;8.82;3.08;;;5.60;99.90;;;;;;5053450;28;20055;-62
2022/11/22 08:08:37;;;;;;;6.70;2.70;;;5.50;99.90;;;;;;5053324;28;20132;-62
2022/11/22 08:11:04;;;;;;;4.85;2.20;;;5.50;99.90;;;;;;5053164;28;20091;-62
2022/11/22 08:13:31;;;;;;;5.57;2.53;;;5.50;99.90;;;;;;5054283;28;20059;-62
2022/11/22 08:16:03;;;;;;;6.78;2.70;;;5.50;99.90;;;;;;5052817;28;20048;-63
2022/11/22 08:18:29;;;;;;;6.50;2.17;;;5.50;99.90;;;;;;5053830;28;20390;-63
2022/11/22 08:21:02;;;;;;;6.38;2.20;;;5.90;99.90;;;;;;5053324;28;20052;-63
2022/11/22 08:23:28;;;;;;;6.40;2.55;;;5.60;99.90;;;;;;5053002;28;20084;-62
2022/11/22 08:25:53;;;;;;;5.20;2.10;;;5.60;99.90;;;;;;5035052;28;20092;-62
2022/11/22 08:28:19;;;;;;;8.02;2.47;;;5.80;99.90;;;;;;5053205;28;20045;-63
2022/11/22 08:30:45;;;;;;;6.95;1.83;;;5.60;99.90;;;;;;5035877;28;20502;-63
2022/11/22 08:33:10;;;;;;;6.10;2.17;;;5.80;99.90;;;;;;5053405;28;20128;-62
2022/11/22 08:35:36;;;;;;;5.57;2.10;;;5.60;99.90;;;;;;5052612;28;20045;-63
2022/11/22 08:38:02;;;;;;;6.30;1.88;;;5.80;99.90;;;;;;5052418;28;20056;-63
2022/11/22 08:40:27;;;;;;;5.57;2.85;;;5.70;99.90;;;;;;5052906;28;20510;-63
2022/11/22 08:42:54;;;;;;;6.72;1.85;;;5.70;99.90;;;;;;5052859;28;20552;-63
2022/11/22 08:45:20;;;;;;;5.93;1.88;;;5.70;99.90;;;;;;5052821;28;20128;-63
2022/11/22 08:47:47;;;;;;;5.57;1.67;;;6.10;99.90;;;;;;5052682;28;20131;-63
2022/11/22 08:50:13;;;;;;;5.78;1.63;;;5.80;99.90;;;;;;5052509;28;20049;-62
2022/11/22 08:52:39;;;;;;;7.40;1.90;;;5.80;99.90;;;;;;5052622;28;20049;-62
2022/11/22 08:55:05;;;;;;;7.18;1.92;;;5.90;99.90;;;;;;5052501;28;20055;-63
2022/11/22 08:57:31;;;;;;;5.13;1.90;;;5.90;99.90;;;;;;5052719;28;20123;-63
2022/11/22 08:59:56;;;;;;;9.13;2.25;;;5.90;99.90;;;;;;5052678;28;20175;-63
2022/11/22 09:02:22;;;;;;;5.90;1.73;;;6.30;99.90;;;;;;5034996;28;20056;-63
2022/11/22 09:04:48;;;;;;;4.72;1.85;;;6.00;99.90;;;;;;5052736;28;20049;-62
2022/11/22 09:07:13;;;;;;;4.53;1.80;;;6.00;99.90;;;;;;5052949;28;20045;-63
2022/11/22 09:09:39;;;;;;;5.68;2.13;;;6.10;99.90;;;;;;5053099;28;20064;-63
2022/11/22 09:12:05;;;;;;;7.22;2.00;;;6.20;99.90;;;;;;5052597;28;20056;-62
2022/11/22 09:14:31;;;;;;;7.10;2.65;;;6.10;99.90;;;;;;5053397;28;20131;-63
2022/11/22 09:16:56;;;;;;;4.63;1.85;;;6.20;99.90;;;;;;5052586;28;20481;-62
2022/11/22 09:19:22;;;;;;;5.35;2.53;;;6.20;99.90;;;;;;5052465;28;20055;-66
2022/11/22 09:21:48;;;;;;;4.90;1.60;;;6.60;99.90;;;;;;5052398;28;20049;-66
2022/11/22 09:24:14;;;;;;;5.85;2.10;;;6.60;99.90;;;;;;5052485;28;20049;-66
2022/11/22 09:26:39;;;;;;;7.82;1.85;;;6.30;99.90;;;;;;5052424;28;20111;-67
2022/11/22 09:29:05;;;;;;;7.28;1.80;;;6.40;99.90;;;;;;5052028;28;20044;-66
2022/11/22 09:31:31;;;;;;;4.82;1.75;;;6.40;99.90;;;;;;5052454;28;20105;-66
2022/11/22 09:33:57;;;;;;;3.70;1.45;;;6.50;99.90;;;;;;5052505;28;20044;-66
2022/11/22 09:36:27;;;;;;;5.25;1.58;;;6.50;99.90;;;;;;5034796;28;20049;-66
2022/11/22 09:38:54;;;;;;;5.72;1.73;;;6.60;99.90;;;;;;5052852;28;20055;-66
2022/11/22 09:41:52;;;;;;;5.55;1.95;;;6.60;99.90;;;;;;5052229;28;20049;-66
2022/11/22 09:44:50;;;;;;;4.25;1.60;;;6.80;99.90;;;;;;5052433;28;20491;-66
2022/11/22 09:47:21;;;;;;;6.38;1.80;;;6.90;99.90;;;;;;5052281;28;20109;-66
2022/11/22 09:50:25;;;;;;;3.88;1.50;;;7.00;99.90;;;;;;5038231;28;20056;-66
2022/11/22 09:52:57;;;;;;;3.72;1.40;;;7.10;99.90;;;;;;5055691;28;20045;-66
2022/11/22 09:55:44;;;;;;;4.95;1.65;;;7.20;99.90;;;;;;5056357;28;20160;-66
2022/11/22 09:58:18;;;;;;;;;;;7.20;99.90;;;;;;5056236;28;20059;-66
2022/11/22 10:00:45;;;;;;;7.10;2.17;;;7.30;99.90;;;;;;5056212;28;20304;-66
2022/11/22 10:03:26;;;;;;;5.38;1.88;;;7.20;99.90;;;;;;5055498;28;20085;-66
2022/11/22 10:05:56;;;;;;;4.93;1.77;;;7.10;99.90;;;;;;5055613;28;20085;-65
2022/11/22 10:09:03;;;;;;;4.57;1.73;;;6.90;99.90;;;;;;5055246;28;20045;-66
2022/11/22 10:11:33;;;;;;;;;;;6.90;99.90;;;;;;5056023;28;20394;-66
2022/11/22 10:14:13;;;;;;;5.70;1.33;;;6.90;99.90;;;;;;5055383;28;19973;-65
2022/11/22 10:17:26;;;;;;;6.82;2.58;;;7.00;99.90;;;;;;5055606;28;20382;-66
2022/11/22 10:19:58;;;;;;;4.75;1.58;;;6.80;99.90;;;;;;4974229;28;20047;-66
2022/11/22 10:22:28;;;;;;;6.30;1.33;;;7.10;99.90;;;;;;5047936;28;20049;-66
2022/11/22 10:24:55;;;;;;;3.30;1.50;;;7.10;99.90;;;;;;5055568;28;20049;-66
2022/11/22 10:27:20;;;;;;;5.20;1.90;;;6.90;99.90;;;;;;5055474;28;20060;-66
2022/11/22 10:29:58;;;;;;;5.60;1.90;;;6.80;99.90;;;;;;5037308;28;20049;-65
2022/11/22 10:32:29;;;;;;;3.35;1.48;;;6.80;99.90;;;;;;5055883;28;20049;-66
2022/11/22 10:35:15;;;;;;;4.90;1.10;;;6.80;99.90;;;;;;5055704;28;20124;-65
2022/11/22 10:37:47;;;;;;;5.57;1.50;;;6.90;99.90;;;;;;5055752;28;20398;-66
2022/11/22 10:40:15;;;;;;;3.92;1.30;;;6.80;99.90;;;;;;5054776;28;20055;-66
2022/11/22 10:43:23;;;;;;;3.05;1.08;;;6.90;99.90;;;;;;5054862;28;20045;-66
2022/11/22 10:45:53;;;;;;;3.92;1.27;;;6.90;99.90;;;;;;5054869;28;20048;-66
2022/11/22 10:48:36;;;;;;;3.45;1.00;;;7.30;99.90;;;;;;5054833;28;20056;-66
2022/11/22 10:51:26;;;;;;;4.82;1.10;;;7.00;99.90;;;;;;5054632;28;20049;-66
2022/11/22 10:54:19;;;;;;;4.60;1.25;;;7.20;99.90;;;;;;5054202;28;20045;-66
2022/11/22 10:56:49;;;;;;;6.55;1.60;;;7.20;99.90;;;;;;5054589;28;20053;-66
2022/11/22 10:59:33;;;;;;;3.47;1.20;;;7.10;99.90;;;;;;5054010;28;20056;-66
2022/11/22 11:03:00;;;;;;;3.85;1.30;;;7.20;99.90;;;;;;5054102;28;20052;-67
2022/11/22 11:05:34;;;;;;;3.67;1.20;;;7.20;99.90;;;;;;4955527;28;20377;-67
2022/11/22 11:08:00;;;;;;;3.83;1.10;;;7.40;99.90;;;;;;5054542;28;20425;-67
2022/11/22 11:10:33;;;;;;;4.38;1.25;;;7.30;99.90;;;;;;5054217;28;20155;-67
2022/11/22 11:13:04;;;;;;;4.40;1.10;;;7.30;99.90;;;;;;5054326;28;20084;-66
2022/11/22 11:15:39;;;;;;;3.50;1.30;;;7.30;99.90;;;;;;5036758;28;20049;-66
2022/11/22 11:18:32;;;;;;;3.45;1.00;;;7.40;99.90;;;;;;5054320;28;20041;-66
2022/11/22 11:20:57;;;;;;;2.95;1.42;;;7.40;99.90;;;;;;5053965;28;20056;-67
2022/11/22 11:23:23;;;;;;;7.45;1.48;;;7.40;99.90;;;;;;5053977;28;20408;-66
2022/11/22 11:25:51;;;;;;;3.95;1.30;;;7.30;99.90;;;;;;5053918;28;20505;-67
2022/11/22 11:28:26;;;;;;;3.70;1.10;;;7.40;99.90;;;;;;5054781;28;20048;-65
2022/11/22 11:30:53;;;;;;;4.60;1.30;;;7.40;99.90;;;;;;5053997;28;20043;-65
2022/11/22 11:33:25;;;;;;;2.92;1.10;;;7.40;99.90;;;;;;5053957;28;20378;-65
2022/11/22 11:36:06;;;;;;;4.63;1.33;;;7.50;99.90;;;;;;5054190;28;20045;-68
2022/11/22 11:38:54;;;;;;;3.97;1.83;;;7.50;99.90;;;;;;5053814;28;20045;-67
2022/11/22 11:41:29;;;;;;;3.53;1.15;;;7.40;99.90;;;;;;5035912;28;20052;-67
2022/11/22 11:43:59;;;;;;;2.95;1.15;;;7.40;99.90;;;;;;5054486;28;20044;-64
2022/11/22 11:46:28;;;;;;;3.75;1.33;;;7.40;99.90;;;;;;5053749;28;20052;-63
2022/11/22 11:49:07;;;;;;;3.92;1.10;;;7.80;99.90;;;;;;5053733;28;20139;-63
2022/11/22 11:51:57;;;;;;;3.05;1.20;;;7.50;99.90;;;;;;5036074;28;20041;-63
2022/11/22 11:54:42;;;;;;;4.15;1.10;;;7.50;99.90;;;;;;5053886;28;20127;-63
2022/11/22 11:57:24;;;;;;;4.05;1.20;;;7.50;99.90;;;;;;5036678;28;20061;-63
2022/11/22 11:59:51;;;;;;;3.92;1.60;;;7.60;99.90;;;;;;5053365;28;20095;-64
2022/11/22 12:02:25;;;;;;;5.03;1.25;;;7.70;99.90;;;;;;5035902;28;20482;-63
2022/11/22 12:04:55;;;;;;;2.97;1.20;;;7.60;99.90;;;;;;5054234;28;20044;-63
2022/11/22 12:07:26;;;;;;;3.20;1.27;;;7.60;99.90;;;;;;5053810;28;20068;-72
2022/11/22 12:09:55;;;;;;;3.90;1.20;;;7.60;99.90;;;;;;5035038;28;20127;-68
2022/11/22 12:12:50;;;;;;;3.40;1.10;;;7.60;99.90;;;;;;5052879;28;20048;-68
2022/11/22 12:15:26;;;;;;;5.32;1.25;;;7.60;99.90;;;;;;5035832;28;20044;-67
2022/11/22 12:18:21;;;;;;;2.75;1.13;;;7.60;99.90;;;;;;5053243;28;20037;-68
2022/11/22 12:20:59;;;;;;;3.53;1.33;;;7.60;99.90;;;;;;5053158;28;20135;-67
2022/11/22 12:23:54;;;;;;;3.30;1.35;;;7.60;99.90;;;;;;5053627;28;20045;-68
2022/11/22 12:26:20;;;;;;;2.28;0.90;;;7.60;99.90;;;;;;5053015;28;20052;-67
2022/11/22 12:28:47;;;;;;;3.05;1.33;;;7.60;99.90;;;;;;5053579;28;20359;-66
2022/11/22 12:31:40;;;;;;;6.47;1.40;;;7.60;99.90;;;;;;5052872;28;20095;-67
2022/11/22 12:34:42;;;;;;;3.70;1.35;;;7.60;99.90;;;;;;5053285;28;20144;-67
2022/11/22 12:37:38;;;;;;;3.00;1.30;;;7.70;99.90;;;;;;5052321;28;20140;-68
2022/11/22 12:40:16;;;;;;;7.22;1.33;;;8.00;99.90;;;;;;5051272;28;20088;-70
2022/11/22 12:43:04;;;;;;;3.30;1.38;;;7.70;99.90;;;;;;5052931;28;20067;-70
2022/11/22 12:45:41;;;;;;;2.90;1.10;;;7.70;99.90;;;;;;5053244;28;20130;-67
2022/11/22 12:48:25;;;;;;;3.90;1.40;;;7.70;99.90;;;;;;5052711;28;20057;-68
2022/11/22 12:50:58;;;;;;;3.03;1.38;;;7.70;99.90;;;;;;5053251;28;20053;-68
2022/11/22 12:53:35;;;;;;;5.60;1.83;;;7.70;99.90;;;;;;5053118;28;20131;-68
2022/11/22 12:56:26;;;;;;;4.97;1.35;;;7.80;99.90;;;;;;5052789;28;20049;-68
2022/11/22 12:59:03;;;;;;;3.47;1.95;;;7.70;99.90;;;;;;5053021;28;20094;-67
2022/11/22 13:01:32;;;;;;;7.82;1.58;;;7.60;99.90;;;;;;5052774;28;20179;-67
2022/11/22 13:04:09;;;;;;;3.30;1.23;;;7.60;99.90;;;;;;5052986;28;20600;-68
2022/11/22 13:06:44;;;;;;;3.33;0.93;;;7.60;99.90;;;;;;5052768;28;20402;-68
2022/11/22 13:09:21;;;;;;;2.75;0.93;;;7.60;99.90;;;;;;5052912;28;20094;-67
2022/11/22 13:11:54;;;;;;;3.35;1.00;;;7.60;99.90;;;;;;5052618;28;20049;-68
2022/11/22 13:14:31;;;;;;;3.05;1.02;;;7.60;99.90;;;;;;5035810;28;20562;-68
2022/11/22 13:16:58;;;;;;;4.40;1.00;;;7.60;99.90;;;;;;5053070;28;20351;-68
2022/11/22 13:19:25;;;;;;;3.85;0.90;;;7.70;99.90;;;;;;5052528;28;20138;-68
2022/11/22 13:22:00;;;;;;;2.72;0.90;;;7.60;99.90;;;;;;5034863;28;20402;-68